TimeEDT,TemperatureF,Dew PointF,Humidity,Sea Level PressureIn,VisibilityMPH,Wind Direction,Wind SpeedMPH,Gust SpeedMPH,PrecipitationIn,Events,Conditions,WindDirDegrees,DateUTC
12:53 AM,46.0,44.1,93,29.35,5.0,NNE,33.4,41.4,0.22,Rain,Light Rain,30,2011-10-20 04:53:00
1:10 AM,46.4,44.6,93,29.34,2.5,NNE,27.6,43.7,0.05,,Overcast,20,2011-10-20 05:10:00
1:37 AM,46.4,44.6,93,29.32,2.5,NNE,32.2,41.4,0.11,,Overcast,20,2011-10-20 05:37:00
1:53 AM,46.0,45.0,96,29.32,3.0,NNE,31.1,41.4,0.14,,Overcast,20,2011-10-20 05:53:00
2:02 AM,46.4,44.6,93,29.32,4.0,NNE,32.2,50.6,0.03,,Overcast,30,2011-10-20 06:02:00
2:53 AM,46.0,46.0,100,29.29,7.0,NNE,34.5,42.6,0.13,,Overcast,20,2011-10-20 06:53:00
3:53 AM,46.0,-9999,N/A,29.27,2.0,NNE,28.8,39.1,0.03,,Overcast,20,2011-10-20 07:53:00
4:12 AM,46.4,-9999,N/A,29.26,3.0,NNE,24.2,41.4,0.03,,Overcast,20,2011-10-20 08:12:00
4:49 AM,46.4,-9999,N/A,29.25,3.0,NNE,33.4,43.7,0.06,,Overcast,30,2011-10-20 08:49:00
4:53 AM,46.9,-9999,N/A,29.26,3.0,NNE,29.9,42.6,0.07,Rain,Light Rain,30,2011-10-20 08:53:00
5:10 AM,46.4,-9999,N/A,29.25,4.0,NNE,28.8,40.3,N/A,Rain,Rain,30,2011-10-20 09:10:00
5:53 AM,46.4,-9999,N/A,29.24,6.0,NNE,28.8,39.1,N/A,Rain,Rain,30,2011-10-20 09:53:00
6:53 AM,46.0,46.0,100,29.24,2.5,NNE,24.2,31.1,0.19,,Overcast,20,2011-10-20 10:53:00
7:07 AM,46.4,46.4,100,29.22,3.0,North,23.0,33.4,0.01,Rain,Light Rain,10,2011-10-20 11:07:00
7:51 AM,44.6,44.6,100,29.22,2.0,North,19.6,27.6,0.04,Rain,Light Rain,10,2011-10-20 11:51:00
7:53 AM,45.0,45.0,100,29.24,2.0,North,20.7,27.6,0.04,Rain,Light Rain,360,2011-10-20 11:53:00
8:17 AM,44.6,44.6,100,29.23,1.5,North,17.3,26.5,0.00,,Overcast,10,2011-10-20 12:17:00
8:50 AM,44.6,44.6,100,29.24,1.5,North,17.3,-,0.01,Rain,Light Rain,360,2011-10-20 12:50:00
8:53 AM,45.0,45.0,100,29.25,1.5,North,20.7,-,0.01,Rain,Light Rain,360,2011-10-20 12:53:00
9:12 AM,44.6,44.6,100,29.24,2.0,North,15.0,25.3,0.01,Rain,Light Rain,360,2011-10-20 13:12:00
9:53 AM,45.0,45.0,100,29.25,4.0,North,18.4,26.5,0.05,Rain,Light Rain,360,2011-10-20 13:53:00
10:38 AM,44.6,44.6,100,29.25,8.0,North,18.4,25.3,0.03,Rain,Light Rain,350,2011-10-20 14:38:00
10:53 AM,44.6,44.6,100,29.26,4.0,North,20.7,-,N/A,Rain,Light Rain,350,2011-10-20 14:53:00
11:53 AM,44.6,44.6,100,29.27,4.0,NNW,19.6,31.1,N/A,Rain,Light Rain,340,2011-10-20 15:53:00
12:02 PM,44.6,44.6,100,29.27,10.0,NNW,24.2,31.1,0.01,Rain,Light Rain,340,2011-10-20 16:02:00
12:17 PM,44.6,44.6,100,29.27,10.0,NNW,24.2,29.9,0.01,Rain,Light Rain,330,2011-10-20 16:17:00
12:46 PM,44.6,44.6,100,29.28,10.0,NNW,19.6,28.8,0.02,Rain,Light Rain,330,2011-10-20 16:46:00
12:53 PM,45.0,45.0,100,29.29,10.0,NNW,20.7,28.8,0.02,Rain,Light Rain,330,2011-10-20 16:53:00
1:35 PM,44.6,44.6,100,29.29,5.0,NNW,15.0,-,0.00,Rain,Light Rain,330,2011-10-20 17:35:00
1:45 PM,44.6,44.6,100,29.29,2.5,NW,17.3,-,0.01,Rain,Light Rain,320,2011-10-20 17:45:00
1:51 PM,44.6,44.6,100,29.29,2.5,NW,17.3,23.0,0.01,Rain,Light Rain,320,2011-10-20 17:51:00
1:53 PM,45.0,45.0,100,29.30,2.5,NW,17.3,-,0.01,Rain,Light Rain,320,2011-10-20 17:53:00
2:10 PM,44.6,44.6,100,29.30,2.5,NNW,16.1,-,0.01,Rain,Light Rain,330,2011-10-20 18:10:00
2:53 PM,43.0,39.9,89,29.33,9.0,North,19.6,27.6,0.03,Rain,Light Rain,350,2011-10-20 18:53:00
3:49 PM,44.6,41.0,87,29.35,10.0,NW,15.0,-,0.02,Rain,Light Rain,320,2011-10-20 19:49:00
3:53 PM,44.1,41.0,89,29.36,10.0,NW,12.7,-,0.02,Rain,Light Rain,310,2011-10-20 19:53:00
4:53 PM,44.1,41.0,89,29.40,10.0,NW,19.6,24.2,0.01,Rain,Light Rain,320,2011-10-20 20:53:00
5:03 PM,44.6,39.2,81,29.40,10.0,NW,18.4,24.2,0.00,,Overcast,310,2011-10-20 21:03:00
5:35 PM,44.6,39.2,81,29.42,10.0,NW,15.0,26.5,0.00,,Overcast,310,2011-10-20 21:35:00
5:53 PM,44.1,41.0,89,29.44,10.0,NW,13.8,20.7,0.00,,Overcast,310,2011-10-20 21:53:00
6:53 PM,43.0,39.9,89,29.49,10.0,NW,12.7,-,0.00,,Overcast,310,2011-10-20 22:53:00
7:06 PM,42.8,39.2,87,29.48,10.0,NW,10.4,20.7,N/A,,Overcast,310,2011-10-20 23:06:00
7:53 PM,43.0,39.9,89,29.53,10.0,WNW,12.7,-,N/A,,Overcast,300,2011-10-20 23:53:00
8:53 PM,44.1,39.9,85,29.56,10.0,WNW,13.8,-,N/A,,Overcast,290,2011-10-21 00:53:00
9:15 PM,44.6,39.2,81,29.57,10.0,WNW,13.8,-,N/A,,Overcast,290,2011-10-21 01:15:00
9:53 PM,45.0,39.9,82,29.60,10.0,WNW,12.7,-,N/A,,Overcast,300,2011-10-21 01:53:00
10:39 PM,44.6,39.2,81,29.61,10.0,WNW,12.7,-,0.00,Rain,Light Rain,300,2011-10-21 02:39:00
10:53 PM,44.1,39.9,85,29.64,10.0,WNW,10.4,-,0.00,,Overcast,300,2011-10-21 02:53:00
11:12 PM,44.6,39.2,81,29.63,10.0,WNW,10.4,-,N/A,,Overcast,300,2011-10-21 03:12:00
11:38 PM,44.6,39.2,81,29.64,10.0,WNW,10.4,-,N/A,,Overcast,300,2011-10-21 03:38:00
11:53 PM,44.1,39.9,85,29.67,10.0,WNW,10.4,-,N/A,,Overcast,300,2011-10-21 03:53:00